sensor_id;sensor_type;location;lat;lon;timestamp;P1;durP1;ratioP1;P2;durP2;ratioP2
22270;SDS011;11304;53.520;10.104;2022-08-02T00:02:18;8.07;;;2.00;;
22270;SDS011;11304;53.520;10.104;2022-08-02T00:04:45;5.95;;;1.83;;
22270;SDS011;11304;53.520;10.104;2022-08-02T00:07:11;7.15;;;2.03;;
22270;SDS011;11304;53.520;10.104;2022-08-02T00:09:37;8.73;;;2.17;;
22270;SDS011;11304;53.520;10.104;2022-08-02T00:12:04;6.50;;;1.80;;
22270;SDS011;11304;53.520;10.104;2022-08-02T00:14:30;6.80;;;1.83;;
22270;SDS011;11304;53.520;10.104;2022-08-02T00:16:57;6.47;;;1.88;;
22270;SDS011;11304;53.520;10.104;2022-08-02T00:19:23;6.45;;;1.70;;
22270;SDS011;11304;53.520;10.104;2022-08-02T00:21:49;3.20;;;1.40;;
22270;SDS011;11304;53.520;10.104;2022-08-02T00:24:16;2.92;;;1.27;;
22270;SDS011;11304;53.520;10.104;2022-08-02T00:26:42;5.50;;;1.40;;
22270;SDS011;11304;53.520;10.104;2022-08-02T00:29:08;7.35;;;1.50;;
22270;SDS011;11304;53.520;10.104;2022-08-02T00:31:34;2.95;;;1.30;;
22270;SDS011;11304;53.520;10.104;2022-08-02T00:34:00;3.70;;;1.40;;
22270;SDS011;11304;53.520;10.104;2022-08-02T00:36:26;2.35;;;1.00;;
22270;SDS011;11304;53.520;10.104;2022-08-02T00:38:53;1.80;;;1.05;;
22270;SDS011;11304;53.520;10.104;2022-08-02T00:41:20;2.30;;;0.88;;
22270;SDS011;11304;53.520;10.104;2022-08-02T00:43:46;4.00;;;0.90;;
22270;SDS011;11304;53.520;10.104;2022-08-02T00:46:14;2.47;;;0.80;;
22270;SDS011;11304;53.520;10.104;2022-08-02T00:48:40;6.95;;;1.73;;
22270;SDS011;11304;53.520;10.104;2022-08-02T00:51:06;5.88;;;1.65;;
22270;SDS011;11304;53.520;10.104;2022-08-02T00:53:33;4.35;;;1.35;;
22270;SDS011;11304;53.520;10.104;2022-08-02T00:55:59;5.15;;;1.23;;
22270;SDS011;11304;53.520;10.104;2022-08-02T00:58:25;4.38;;;1.25;;
22270;SDS011;11304;53.520;10.104;2022-08-02T01:00:52;4.50;;;1.40;;
22270;SDS011;11304;53.520;10.104;2022-08-02T01:03:20;4.13;;;1.40;;
22270;SDS011;11304;53.520;10.104;2022-08-02T01:05:46;2.17;;;1.00;;
22270;SDS011;11304;53.520;10.104;2022-08-02T01:08:12;2.38;;;0.90;;
22270;SDS011;11304;53.520;10.104;2022-08-02T01:10:39;3.15;;;1.38;;
22270;SDS011;11304;53.520;10.104;2022-08-02T01:13:05;4.22;;;1.40;;
22270;SDS011;11304;53.520;10.104;2022-08-02T01:15:32;2.75;;;1.38;;
22270;SDS011;11304;53.520;10.104;2022-08-02T01:18:00;5.13;;;1.67;;
22270;SDS011;11304;53.520;10.104;2022-08-02T01:20:49;6.07;;;1.60;;
22270;SDS011;11304;53.520;10.104;2022-08-02T01:30:46;3.25;;;1.00;;
22270;SDS011;11304;53.520;10.104;2022-08-02T01:33:16;7.15;;;1.33;;
22270;SDS011;11304;53.520;10.104;2022-08-02T01:35:44;3.33;;;1.10;;
22270;SDS011;11304;53.520;10.104;2022-08-02T01:38:13;6.68;;;1.58;;
22270;SDS011;11304;53.520;10.104;2022-08-02T01:40:42;3.03;;;1.00;;
22270;SDS011;11304;53.520;10.104;2022-08-02T01:43:09;1.55;;;0.90;;
22270;SDS011;11304;53.520;10.104;2022-08-02T01:45:36;1.38;;;0.70;;
22270;SDS011;11304;53.520;10.104;2022-08-02T01:48:04;1.77;;;0.70;;
22270;SDS011;11304;53.520;10.104;2022-08-02T01:50:32;3.97;;;1.60;;
22270;SDS011;11304;53.520;10.104;2022-08-02T01:52:59;2.80;;;1.25;;
22270;SDS011;11304;53.520;10.104;2022-08-02T01:55:31;3.10;;;1.40;;
22270;SDS011;11304;53.520;10.104;2022-08-02T01:57:58;5.20;;;1.52;;
22270;SDS011;11304;53.520;10.104;2022-08-02T02:00:27;3.05;;;1.15;;
22270;SDS011;11304;53.520;10.104;2022-08-02T02:02:54;3.23;;;1.17;;
22270;SDS011;11304;53.520;10.104;2022-08-02T02:05:22;5.00;;;1.30;;
22270;SDS011;11304;53.520;10.104;2022-08-02T02:07:49;5.78;;;1.60;;
22270;SDS011;11304;53.520;10.104;2022-08-02T02:10:18;2.28;;;1.17;;
22270;SDS011;11304;53.520;10.104;2022-08-02T02:12:46;3.78;;;1.20;;
22270;SDS011;11304;53.520;10.104;2022-08-02T02:15:15;2.42;;;1.42;;
22270;SDS011;11304;53.520;10.104;2022-08-02T02:17:43;2.13;;;0.75;;
22270;SDS011;11304;53.520;10.104;2022-08-02T02:20:13;1.58;;;0.77;;
22270;SDS011;11304;53.520;10.104;2022-08-02T02:25:43;2.30;;;1.00;;
22270;SDS011;11304;53.520;10.104;2022-08-02T02:28:11;0.65;;;0.50;;
22270;SDS011;11304;53.520;10.104;2022-08-02T02:30:39;2.53;;;0.77;;
22270;SDS011;11304;53.520;10.104;2022-08-02T02:33:06;1.58;;;0.80;;
22270;SDS011;11304;53.520;10.104;2022-08-02T02:35:33;2.35;;;1.13;;
22270;SDS011;11304;53.520;10.104;2022-08-02T02:38:01;3.13;;;0.98;;
22270;SDS011;11304;53.520;10.104;2022-08-02T02:40:28;0.38;;;0.30;;
22270;SDS011;11304;53.520;10.104;2022-08-02T02:42:55;4.10;;;0.77;;
22270;SDS011;11304;53.520;10.104;2022-08-02T02:45:21;3.00;;;1.10;;
22270;SDS011;11304;53.520;10.104;2022-08-02T02:47:48;2.75;;;1.23;;
22270;SDS011;11304;53.520;10.104;2022-08-02T02:50:15;4.55;;;1.73;;
22270;SDS011;11304;53.520;10.104;2022-08-02T02:52:41;4.35;;;1.20;;
22270;SDS011;11304;53.520;10.104;2022-08-02T02:55:07;4.68;;;1.63;;
22270;SDS011;11304;53.520;10.104;2022-08-02T02:57:35;2.90;;;1.50;;
22270;SDS011;11304;53.520;10.104;2022-08-02T03:00:02;1.48;;;1.10;;
22270;SDS011;11304;53.520;10.104;2022-08-02T03:02:28;2.92;;;1.80;;
22270;SDS011;11304;53.520;10.104;2022-08-02T03:04:55;2.42;;;0.90;;
22270;SDS011;11304;53.520;10.104;2022-08-02T03:07:23;4.68;;;1.10;;
22270;SDS011;11304;53.520;10.104;2022-08-02T03:09:49;2.65;;;1.27;;
22270;SDS011;11304;53.520;10.104;2022-08-02T03:12:15;4.35;;;1.30;;
22270;SDS011;11304;53.520;10.104;2022-08-02T03:14:42;2.67;;;1.25;;
22270;SDS011;11304;53.520;10.104;2022-08-02T03:17:08;4.30;;;1.50;;
22270;SDS011;11304;53.520;10.104;2022-08-02T03:19:34;3.13;;;1.20;;
22270;SDS011;11304;53.520;10.104;2022-08-02T03:22:00;1.88;;;1.30;;
22270;SDS011;11304;53.520;10.104;2022-08-02T03:24:26;1.83;;;1.05;;
22270;SDS011;11304;53.520;10.104;2022-08-02T03:26:53;1.83;;;0.82;;
22270;SDS011;11304;53.520;10.104;2022-08-02T03:29:19;5.78;;;2.10;;
22270;SDS011;11304;53.520;10.104;2022-08-02T03:31:45;6.57;;;2.20;;
22270;SDS011;11304;53.520;10.104;2022-08-02T03:34:11;6.65;;;2.45;;
22270;SDS011;11304;53.520;10.104;2022-08-02T03:36:38;3.53;;;1.85;;
22270;SDS011;11304;53.520;10.104;2022-08-02T03:39:05;3.33;;;1.70;;
22270;SDS011;11304;53.520;10.104;2022-08-02T03:41:31;3.88;;;2.00;;
22270;SDS011;11304;53.520;10.104;2022-08-02T03:43:58;3.30;;;1.20;;
22270;SDS011;11304;53.520;10.104;2022-08-02T03:46:24;1.27;;;0.90;;
22270;SDS011;11304;53.520;10.104;2022-08-02T03:48:50;1.70;;;1.05;;
22270;SDS011;11304;53.520;10.104;2022-08-02T03:51:18;2.15;;;1.10;;
22270;SDS011;11304;53.520;10.104;2022-08-02T03:53:44;3.97;;;2.42;;
22270;SDS011;11304;53.520;10.104;2022-08-02T03:56:10;5.13;;;2.20;;
22270;SDS011;11304;53.520;10.104;2022-08-02T03:58:37;1.90;;;1.35;;
22270;SDS011;11304;53.520;10.104;2022-08-02T04:01:03;1.58;;;1.48;;
22270;SDS011;11304;53.520;10.104;2022-08-02T04:03:29;19.92;;;3.50;;
22270;SDS011;11304;53.520;10.104;2022-08-02T04:05:55;19.55;;;3.42;;
22270;SDS011;11304;53.520;10.104;2022-08-02T04:08:21;13.40;;;3.45;;
22270;SDS011;11304;53.520;10.104;2022-08-02T04:10:47;11.05;;;3.10;;
22270;SDS011;11304;53.520;10.104;2022-08-02T04:13:33;8.48;;;2.95;;
22270;SDS011;11304;53.520;10.104;2022-08-02T04:16:11;6.57;;;3.30;;
22270;SDS011;11304;53.520;10.104;2022-08-02T04:18:39;4.40;;;3.00;;
22270;SDS011;11304;53.520;10.104;2022-08-02T04:21:06;10.20;;;4.25;;
22270;SDS011;11304;53.520;10.104;2022-08-02T04:23:34;6.32;;;3.40;;
22270;SDS011;11304;53.520;10.104;2022-08-02T04:26:01;7.60;;;3.58;;
22270;SDS011;11304;53.520;10.104;2022-08-02T04:28:28;7.70;;;3.50;;
22270;SDS011;11304;53.520;10.104;2022-08-02T04:30:55;9.35;;;5.03;;
22270;SDS011;11304;53.520;10.104;2022-08-02T04:33:22;7.65;;;4.00;;
22270;SDS011;11304;53.520;10.104;2022-08-02T04:35:49;7.53;;;4.00;;
22270;SDS011;11304;53.520;10.104;2022-08-02T04:38:15;6.75;;;3.65;;
22270;SDS011;11304;53.520;10.104;2022-08-02T04:40:52;4.82;;;3.33;;
22270;SDS011;11304;53.520;10.104;2022-08-02T04:43:18;6.88;;;2.53;;
22270;SDS011;11304;53.520;10.104;2022-08-02T04:45:45;5.68;;;2.97;;
22270;SDS011;11304;53.520;10.104;2022-08-02T04:48:12;5.10;;;2.47;;
22270;SDS011;11304;53.520;10.104;2022-08-02T04:50:38;4.22;;;1.80;;
22270;SDS011;11304;53.520;10.104;2022-08-02T04:53:04;1.95;;;1.42;;
22270;SDS011;11304;53.520;10.104;2022-08-02T04:55:30;2.47;;;1.70;;
22270;SDS011;11304;53.520;10.104;2022-08-02T04:57:57;2.40;;;1.42;;
22270;SDS011;11304;53.520;10.104;2022-08-02T05:00:23;3.72;;;2.15;;
22270;SDS011;11304;53.520;10.104;2022-08-02T05:02:50;4.38;;;2.35;;
22270;SDS011;11304;53.520;10.104;2022-08-02T05:05:16;2.20;;;1.60;;
22270;SDS011;11304;53.520;10.104;2022-08-02T05:07:43;7.57;;;2.50;;
22270;SDS011;11304;53.520;10.104;2022-08-02T05:10:09;5.55;;;3.50;;
22270;SDS011;11304;53.520;10.104;2022-08-02T05:12:39;5.80;;;2.85;;
22270;SDS011;11304;53.520;10.104;2022-08-02T05:15:05;4.82;;;3.58;;
22270;SDS011;11304;53.520;10.104;2022-08-02T05:17:31;7.55;;;3.80;;
22270;SDS011;11304;53.520;10.104;2022-08-02T05:19:57;9.15;;;3.90;;
22270;SDS011;11304;53.520;10.104;2022-08-02T05:22:24;10.18;;;3.88;;
22270;SDS011;11304;53.520;10.104;2022-08-02T05:24:50;6.40;;;3.60;;
22270;SDS011;11304;53.520;10.104;2022-08-02T05:27:16;6.25;;;3.85;;
22270;SDS011;11304;53.520;10.104;2022-08-02T05:29:42;7.18;;;3.75;;
22270;SDS011;11304;53.520;10.104;2022-08-02T05:32:08;10.57;;;4.13;;
22270;SDS011;11304;53.520;10.104;2022-08-02T05:34:34;10.38;;;3.45;;
22270;SDS011;11304;53.520;10.104;2022-08-02T05:37:00;11.38;;;3.63;;
22270;SDS011;11304;53.520;10.104;2022-08-02T05:39:26;13.18;;;3.67;;
22270;SDS011;11304;53.520;10.104;2022-08-02T05:41:53;7.10;;;3.83;;
22270;SDS011;11304;53.520;10.104;2022-08-02T05:44:19;5.75;;;3.20;;
22270;SDS011;11304;53.520;10.104;2022-08-02T05:46:45;5.78;;;3.08;;
22270;SDS011;11304;53.520;10.104;2022-08-02T05:49:11;7.72;;;3.22;;
22270;SDS011;11304;53.520;10.104;2022-08-02T05:51:38;8.45;;;3.50;;
22270;SDS011;11304;53.520;10.104;2022-08-02T05:56:55;12.70;;;3.10;;
22270;SDS011;11304;53.520;10.104;2022-08-02T06:01:56;9.75;;;3.60;;
22270;SDS011;11304;53.520;10.104;2022-08-02T06:04:27;10.85;;;3.40;;
22270;SDS011;11304;53.520;10.104;2022-08-02T06:06:55;10.82;;;3.78;;
22270;SDS011;11304;53.520;10.104;2022-08-02T06:09:26;7.95;;;3.33;;
22270;SDS011;11304;53.520;10.104;2022-08-02T06:11:52;8.73;;;3.20;;
22270;SDS011;11304;53.520;10.104;2022-08-02T06:14:22;12.43;;;4.03;;
22270;SDS011;11304;53.520;10.104;2022-08-02T06:16:49;10.50;;;3.80;;
22270;SDS011;11304;53.520;10.104;2022-08-02T06:19:17;14.20;;;3.42;;
22270;SDS011;11304;53.520;10.104;2022-08-02T06:21:44;9.75;;;2.90;;
22270;SDS011;11304;53.520;10.104;2022-08-02T06:24:11;12.85;;;2.80;;
22270;SDS011;11304;53.520;10.104;2022-08-02T06:26:38;5.68;;;2.42;;
22270;SDS011;11304;53.520;10.104;2022-08-02T06:29:05;11.23;;;3.00;;
22270;SDS011;11304;53.520;10.104;2022-08-02T06:31:32;9.95;;;2.70;;
22270;SDS011;11304;53.520;10.104;2022-08-02T06:33:58;11.05;;;2.83;;
22270;SDS011;11304;53.520;10.104;2022-08-02T06:39:04;7.15;;;2.60;;
22270;SDS011;11304;53.520;10.104;2022-08-02T06:41:36;10.35;;;2.70;;
22270;SDS011;11304;53.520;10.104;2022-08-02T06:44:04;9.93;;;2.80;;
22270;SDS011;11304;53.520;10.104;2022-08-02T06:46:31;7.70;;;2.70;;
22270;SDS011;11304;53.520;10.104;2022-08-02T06:48:58;7.05;;;2.33;;
22270;SDS011;11304;53.520;10.104;2022-08-02T06:51:25;7.20;;;2.40;;
22270;SDS011;11304;53.520;10.104;2022-08-02T06:53:51;11.45;;;2.50;;
22270;SDS011;11304;53.520;10.104;2022-08-02T06:56:17;7.68;;;2.33;;
22270;SDS011;11304;53.520;10.104;2022-08-02T06:58:43;8.02;;;2.00;;
22270;SDS011;11304;53.520;10.104;2022-08-02T07:01:10;9.25;;;2.30;;
22270;SDS011;11304;53.520;10.104;2022-08-02T07:03:37;9.25;;;1.98;;
22270;SDS011;11304;53.520;10.104;2022-08-02T07:06:04;11.43;;;2.00;;
22270;SDS011;11304;53.520;10.104;2022-08-02T07:08:30;9.25;;;2.25;;
22270;SDS011;11304;53.520;10.104;2022-08-02T07:11:00;12.90;;;2.25;;
22270;SDS011;11304;53.520;10.104;2022-08-02T07:13:27;8.90;;;2.20;;
22270;SDS011;11304;53.520;10.104;2022-08-02T07:15:53;9.95;;;2.33;;
22270;SDS011;11304;53.520;10.104;2022-08-02T07:18:20;8.43;;;2.40;;
22270;SDS011;11304;53.520;10.104;2022-08-02T07:20:46;10.68;;;2.45;;
22270;SDS011;11304;53.520;10.104;2022-08-02T07:23:12;11.90;;;2.35;;
22270;SDS011;11304;53.520;10.104;2022-08-02T07:25:39;13.18;;;2.20;;
22270;SDS011;11304;53.520;10.104;2022-08-02T07:28:05;10.23;;;2.42;;
22270;SDS011;11304;53.520;10.104;2022-08-02T07:30:31;11.07;;;2.70;;
22270;SDS011;11304;53.520;10.104;2022-08-02T07:32:58;10.35;;;2.72;;
22270;SDS011;11304;53.520;10.104;2022-08-02T07:35:24;10.30;;;2.17;;
22270;SDS011;11304;53.520;10.104;2022-08-02T07:37:50;10.90;;;2.05;;
22270;SDS011;11304;53.520;10.104;2022-08-02T07:40:18;9.82;;;2.42;;
22270;SDS011;11304;53.520;10.104;2022-08-02T07:42:45;9.27;;;2.42;;
22270;SDS011;11304;53.520;10.104;2022-08-02T07:45:12;9.48;;;2.42;;
22270;SDS011;11304;53.520;10.104;2022-08-02T07:47:39;9.70;;;2.40;;
22270;SDS011;11304;53.520;10.104;2022-08-02T07:50:06;9.80;;;2.20;;
22270;SDS011;11304;53.520;10.104;2022-08-02T07:52:32;8.73;;;2.28;;
22270;SDS011;11304;53.520;10.104;2022-08-02T07:54:59;10.43;;;2.38;;
22270;SDS011;11304;53.520;10.104;2022-08-02T07:57:26;10.82;;;2.72;;
22270;SDS011;11304;53.520;10.104;2022-08-02T07:59:52;7.10;;;2.17;;
22270;SDS011;11304;53.520;10.104;2022-08-02T08:02:18;9.90;;;1.90;;
22270;SDS011;11304;53.520;10.104;2022-08-02T08:04:44;10.45;;;2.40;;
22270;SDS011;11304;53.520;10.104;2022-08-02T08:07:10;9.60;;;2.25;;
22270;SDS011;11304;53.520;10.104;2022-08-02T08:09:37;7.50;;;1.80;;
22270;SDS011;11304;53.520;10.104;2022-08-02T08:12:05;12.45;;;2.35;;
22270;SDS011;11304;53.520;10.104;2022-08-02T08:14:32;9.20;;;2.42;;
22270;SDS011;11304;53.520;10.104;2022-08-02T08:16:58;9.48;;;2.13;;
22270;SDS011;11304;53.520;10.104;2022-08-02T08:19:24;13.02;;;2.55;;
22270;SDS011;11304;53.520;10.104;2022-08-02T08:21:50;9.85;;;2.17;;
22270;SDS011;11304;53.520;10.104;2022-08-02T08:24:16;8.65;;;2.17;;
22270;SDS011;11304;53.520;10.104;2022-08-02T08:26:42;8.05;;;2.15;;
22270;SDS011;11304;53.520;10.104;2022-08-02T08:29:09;7.18;;;1.83;;
22270;SDS011;11304;53.520;10.104;2022-08-02T08:31:35;9.80;;;2.10;;
22270;SDS011;11304;53.520;10.104;2022-08-02T08:34:02;12.10;;;2.40;;
22270;SDS011;11304;53.520;10.104;2022-08-02T08:36:28;8.30;;;2.10;;
22270;SDS011;11304;53.520;10.104;2022-08-02T08:38:55;10.88;;;2.17;;
22270;SDS011;11304;53.520;10.104;2022-08-02T08:41:21;8.20;;;1.52;;
22270;SDS011;11304;53.520;10.104;2022-08-02T08:43:47;6.68;;;1.83;;
22270;SDS011;11304;53.520;10.104;2022-08-02T08:46:17;7.35;;;1.92;;
22270;SDS011;11304;53.520;10.104;2022-08-02T08:48:45;8.30;;;2.28;;
22270;SDS011;11304;53.520;10.104;2022-08-02T08:51:15;7.93;;;1.83;;
22270;SDS011;11304;53.520;10.104;2022-08-02T08:53:42;10.57;;;1.92;;
22270;SDS011;11304;53.520;10.104;2022-08-02T08:56:12;14.25;;;2.33;;
22270;SDS011;11304;53.520;10.104;2022-08-02T08:58:39;11.13;;;2.53;;
22270;SDS011;11304;53.520;10.104;2022-08-02T09:01:06;8.10;;;2.25;;
22270;SDS011;11304;53.520;10.104;2022-08-02T09:03:32;8.63;;;2.03;;
22270;SDS011;11304;53.520;10.104;2022-08-02T09:05:58;8.13;;;1.98;;
22270;SDS011;11304;53.520;10.104;2022-08-02T09:08:24;7.07;;;1.55;;
22270;SDS011;11304;53.520;10.104;2022-08-02T09:10:51;7.63;;;1.92;;
22270;SDS011;11304;53.520;10.104;2022-08-02T09:13:22;7.85;;;2.15;;
22270;SDS011;11304;53.520;10.104;2022-08-02T09:16:01;5.65;;;1.90;;
22270;SDS011;11304;53.520;10.104;2022-08-02T09:18:28;10.43;;;1.90;;
22270;SDS011;11304;53.520;10.104;2022-08-02T09:20:55;5.65;;;1.60;;
22270;SDS011;11304;53.520;10.104;2022-08-02T09:23:22;6.43;;;1.63;;
22270;SDS011;11304;53.520;10.104;2022-08-02T09:25:59;8.85;;;1.73;;
22270;SDS011;11304;53.520;10.104;2022-08-02T09:28:26;7.38;;;1.92;;
22270;SDS011;11304;53.520;10.104;2022-08-02T09:30:55;9.40;;;2.10;;
22270;SDS011;11304;53.520;10.104;2022-08-02T09:33:25;10.68;;;1.85;;
22270;SDS011;11304;53.520;10.104;2022-08-02T09:36:07;8.80;;;2.00;;
22270;SDS011;11304;53.520;10.104;2022-08-02T09:38:36;8.30;;;2.17;;
22270;SDS011;11304;53.520;10.104;2022-08-02T09:41:03;8.52;;;2.13;;
22270;SDS011;11304;53.520;10.104;2022-08-02T09:43:36;7.30;;;1.88;;
22270;SDS011;11304;53.520;10.104;2022-08-02T09:46:15;6.05;;;1.55;;
22270;SDS011;11304;53.520;10.104;2022-08-02T09:48:51;7.22;;;1.80;;
22270;SDS011;11304;53.520;10.104;2022-08-02T09:51:18;9.07;;;1.98;;
22270;SDS011;11304;53.520;10.104;2022-08-02T09:53:45;5.80;;;1.58;;
22270;SDS011;11304;53.520;10.104;2022-08-02T09:56:11;4.18;;;1.58;;
22270;SDS011;11304;53.520;10.104;2022-08-02T09:58:38;5.68;;;1.70;;
22270;SDS011;11304;53.520;10.104;2022-08-02T10:01:04;5.38;;;1.70;;
22270;SDS011;11304;53.520;10.104;2022-08-02T10:03:30;6.28;;;1.80;;
22270;SDS011;11304;53.520;10.104;2022-08-02T10:05:57;7.25;;;1.92;;
22270;SDS011;11304;53.520;10.104;2022-08-02T10:08:24;6.90;;;1.60;;
22270;SDS011;11304;53.520;10.104;2022-08-02T10:10:50;5.10;;;1.85;;
22270;SDS011;11304;53.520;10.104;2022-08-02T10:13:32;4.60;;;1.50;;
22270;SDS011;11304;53.520;10.104;2022-08-02T10:15:59;4.47;;;1.65;;
22270;SDS011;11304;53.520;10.104;2022-08-02T10:18:26;10.50;;;1.98;;
22270;SDS011;11304;53.520;10.104;2022-08-02T10:20:53;6.43;;;1.60;;
22270;SDS011;11304;53.520;10.104;2022-08-02T10:23:19;10.23;;;1.90;;
22270;SDS011;11304;53.520;10.104;2022-08-02T10:25:46;6.88;;;1.50;;
22270;SDS011;11304;53.520;10.104;2022-08-02T10:28:14;6.32;;;1.63;;
22270;SDS011;11304;53.520;10.104;2022-08-02T10:30:42;4.97;;;1.70;;
22270;SDS011;11304;53.520;10.104;2022-08-02T10:33:10;6.63;;;1.40;;
22270;SDS011;11304;53.520;10.104;2022-08-02T10:35:37;6.75;;;1.80;;
22270;SDS011;11304;53.520;10.104;2022-08-02T10:38:08;9.75;;;1.85;;
22270;SDS011;11304;53.520;10.104;2022-08-02T10:40:45;7.50;;;2.00;;
22270;SDS011;11304;53.520;10.104;2022-08-02T10:43:11;6.53;;;1.50;;
22270;SDS011;11304;53.520;10.104;2022-08-02T10:45:38;6.63;;;1.58;;
22270;SDS011;11304;53.520;10.104;2022-08-02T10:48:11;7.25;;;1.80;;
22270;SDS011;11304;53.520;10.104;2022-08-02T10:53:25;13.23;;;1.92;;
22270;SDS011;11304;53.520;10.104;2022-08-02T10:55:52;6.40;;;1.50;;
22270;SDS011;11304;53.520;10.104;2022-08-02T10:58:19;6.47;;;1.67;;
22270;SDS011;11304;53.520;10.104;2022-08-02T11:00:46;9.95;;;2.10;;
22270;SDS011;11304;53.520;10.104;2022-08-02T11:06:12;8.23;;;1.50;;
22270;SDS011;11304;53.520;10.104;2022-08-02T11:08:39;4.60;;;1.50;;
22270;SDS011;11304;53.520;10.104;2022-08-02T11:16:19;4.53;;;1.20;;
22270;SDS011;11304;53.520;10.104;2022-08-02T11:21:21;7.15;;;1.33;;
22270;SDS011;11304;53.520;10.104;2022-08-02T11:23:49;4.38;;;1.27;;
22270;SDS011;11304;53.520;10.104;2022-08-02T11:31:19;5.97;;;1.30;;
22270;SDS011;11304;53.520;10.104;2022-08-02T11:33:47;10.98;;;1.80;;
22270;SDS011;11304;53.520;10.104;2022-08-02T11:36:14;9.63;;;1.73;;
22270;SDS011;11304;53.520;10.104;2022-08-02T11:38:40;7.30;;;1.92;;
22270;SDS011;11304;53.520;10.104;2022-08-02T11:41:06;8.02;;;2.05;;
22270;SDS011;11304;53.520;10.104;2022-08-02T11:43:33;6.55;;;1.40;;
22270;SDS011;11304;53.520;10.104;2022-08-02T11:46:03;4.60;;;1.40;;
22270;SDS011;11304;53.520;10.104;2022-08-02T11:48:36;4.55;;;1.20;;
22270;SDS011;11304;53.520;10.104;2022-08-02T11:51:03;5.90;;;1.48;;
22270;SDS011;11304;53.520;10.104;2022-08-02T11:53:31;7.10;;;1.23;;
22270;SDS011;11304;53.520;10.104;2022-08-02T11:55:59;8.23;;;1.50;;
22270;SDS011;11304;53.520;10.104;2022-08-02T11:58:25;6.45;;;1.50;;
22270;SDS011;11304;53.520;10.104;2022-08-02T12:00:52;5.32;;;1.40;;
22270;SDS011;11304;53.520;10.104;2022-08-02T12:03:18;5.22;;;1.50;;
22270;SDS011;11304;53.520;10.104;2022-08-02T12:05:47;5.05;;;1.38;;
22270;SDS011;11304;53.520;10.104;2022-08-02T12:08:14;5.13;;;1.50;;
22270;SDS011;11304;53.520;10.104;2022-08-02T12:10:47;5.50;;;1.40;;
22270;SDS011;11304;53.520;10.104;2022-08-02T12:13:13;4.55;;;1.30;;
22270;SDS011;11304;53.520;10.104;2022-08-02T12:15:41;4.50;;;1.48;;
22270;SDS011;11304;53.520;10.104;2022-08-02T12:18:13;5.35;;;1.90;;
22270;SDS011;11304;53.520;10.104;2022-08-02T12:20:58;8.25;;;1.90;;
22270;SDS011;11304;53.520;10.104;2022-08-02T12:23:24;5.57;;;1.42;;
22270;SDS011;11304;53.520;10.104;2022-08-02T12:26:03;6.28;;;2.25;;
22270;SDS011;11304;53.520;10.104;2022-08-02T12:28:33;4.90;;;1.70;;
22270;SDS011;11304;53.520;10.104;2022-08-02T12:31:00;6.25;;;1.55;;
22270;SDS011;11304;53.520;10.104;2022-08-02T12:33:28;4.88;;;1.25;;
22270;SDS011;11304;53.520;10.104;2022-08-02T12:35:55;6.82;;;1.70;;
22270;SDS011;11304;53.520;10.104;2022-08-02T12:38:21;7.15;;;1.27;;
22270;SDS011;11304;53.520;10.104;2022-08-02T12:40:47;11.45;;;2.10;;
22270;SDS011;11304;53.520;10.104;2022-08-02T12:43:17;5.22;;;1.75;;
22270;SDS011;11304;53.520;10.104;2022-08-02T12:45:53;6.82;;;1.58;;
22270;SDS011;11304;53.520;10.104;2022-08-02T12:48:30;6.10;;;1.50;;
22270;SDS011;11304;53.520;10.104;2022-08-02T12:50:58;7.03;;;1.40;;
22270;SDS011;11304;53.520;10.104;2022-08-02T12:53:30;4.15;;;1.08;;
22270;SDS011;11304;53.520;10.104;2022-08-02T12:55:56;3.80;;;1.27;;
22270;SDS011;11304;53.520;10.104;2022-08-02T12:58:23;4.60;;;1.42;;
22270;SDS011;11304;53.520;10.104;2022-08-02T13:00:54;3.17;;;1.20;;
22270;SDS011;11304;53.520;10.104;2022-08-02T13:03:20;5.68;;;1.42;;
22270;SDS011;11304;53.520;10.104;2022-08-02T13:05:48;4.72;;;1.35;;
22270;SDS011;11304;53.520;10.104;2022-08-02T13:08:14;3.47;;;1.30;;
22270;SDS011;11304;53.520;10.104;2022-08-02T13:10:40;5.30;;;1.10;;
22270;SDS011;11304;53.520;10.104;2022-08-02T13:13:06;3.97;;;1.25;;
22270;SDS011;11304;53.520;10.104;2022-08-02T13:15:33;4.93;;;1.35;;
22270;SDS011;11304;53.520;10.104;2022-08-02T13:17:59;5.03;;;1.40;;
22270;SDS011;11304;53.520;10.104;2022-08-02T13:20:25;4.85;;;1.50;;
22270;SDS011;11304;53.520;10.104;2022-08-02T13:22:52;5.40;;;1.60;;
22270;SDS011;11304;53.520;10.104;2022-08-02T13:25:19;5.05;;;0.95;;
22270;SDS011;11304;53.520;10.104;2022-08-02T13:27:47;4.97;;;1.13;;
22270;SDS011;11304;53.520;10.104;2022-08-02T13:30:13;3.22;;;1.30;;
22270;SDS011;11304;53.520;10.104;2022-08-02T13:32:39;3.17;;;1.13;;
22270;SDS011;11304;53.520;10.104;2022-08-02T13:35:05;5.40;;;1.48;;
22270;SDS011;11304;53.520;10.104;2022-08-02T13:37:32;5.55;;;1.10;;
22270;SDS011;11304;53.520;10.104;2022-08-02T13:39:58;5.15;;;1.35;;
22270;SDS011;11304;53.520;10.104;2022-08-02T13:42:24;4.10;;;1.17;;
22270;SDS011;11304;53.520;10.104;2022-08-02T13:44:50;2.15;;;0.90;;
22270;SDS011;11304;53.520;10.104;2022-08-02T13:47:16;4.05;;;1.55;;
22270;SDS011;11304;53.520;10.104;2022-08-02T13:49:42;3.83;;;1.40;;
22270;SDS011;11304;53.520;10.104;2022-08-02T13:52:09;5.43;;;1.40;;
22270;SDS011;11304;53.520;10.104;2022-08-02T13:54:35;5.22;;;1.88;;
22270;SDS011;11304;53.520;10.104;2022-08-02T13:57:01;7.00;;;1.50;;
22270;SDS011;11304;53.520;10.104;2022-08-02T13:59:27;4.07;;;1.30;;
22270;SDS011;11304;53.520;10.104;2022-08-02T14:01:53;4.93;;;1.30;;
22270;SDS011;11304;53.520;10.104;2022-08-02T14:04:21;5.22;;;1.50;;
22270;SDS011;11304;53.520;10.104;2022-08-02T14:06:47;6.82;;;3.50;;
22270;SDS011;11304;53.520;10.104;2022-08-02T14:09:13;2.80;;;1.45;;
22270;SDS011;11304;53.520;10.104;2022-08-02T14:11:39;5.20;;;1.40;;
22270;SDS011;11304;53.520;10.104;2022-08-02T14:14:05;4.00;;;1.10;;
22270;SDS011;11304;53.520;10.104;2022-08-02T14:16:31;2.47;;;1.27;;
22270;SDS011;11304;53.520;10.104;2022-08-02T14:18:58;2.45;;;1.25;;
22270;SDS011;11304;53.520;10.104;2022-08-02T14:21:24;3.50;;;1.20;;
22270;SDS011;11304;53.520;10.104;2022-08-02T14:23:50;3.75;;;1.30;;
22270;SDS011;11304;53.520;10.104;2022-08-02T14:26:16;3.17;;;1.23;;
22270;SDS011;11304;53.520;10.104;2022-08-02T14:28:42;6.20;;;1.40;;
22270;SDS011;11304;53.520;10.104;2022-08-02T14:31:08;2.65;;;1.27;;
22270;SDS011;11304;53.520;10.104;2022-08-02T14:33:34;3.33;;;1.20;;
22270;SDS011;11304;53.520;10.104;2022-08-02T14:36:01;2.75;;;1.10;;
22270;SDS011;11304;53.520;10.104;2022-08-02T14:38:27;4.97;;;1.77;;
22270;SDS011;11304;53.520;10.104;2022-08-02T14:40:53;1.83;;;1.20;;
22270;SDS011;11304;53.520;10.104;2022-08-02T14:43:19;2.85;;;1.35;;
22270;SDS011;11304;53.520;10.104;2022-08-02T14:46:04;2.40;;;1.17;;
22270;SDS011;11304;53.520;10.104;2022-08-02T14:48:30;3.83;;;1.35;;
22270;SDS011;11304;53.520;10.104;2022-08-02T14:50:56;5.85;;;1.60;;
22270;SDS011;11304;53.520;10.104;2022-08-02T14:53:22;3.95;;;1.15;;
22270;SDS011;11304;53.520;10.104;2022-08-02T14:55:48;3.25;;;1.20;;
22270;SDS011;11304;53.520;10.104;2022-08-02T14:58:15;4.28;;;1.55;;
22270;SDS011;11304;53.520;10.104;2022-08-02T15:00:41;4.15;;;1.50;;
22270;SDS011;11304;53.520;10.104;2022-08-02T15:03:08;2.50;;;1.25;;
22270;SDS011;11304;53.520;10.104;2022-08-02T15:05:34;2.65;;;1.08;;
22270;SDS011;11304;53.520;10.104;2022-08-02T15:08:00;3.53;;;1.50;;
22270;SDS011;11304;53.520;10.104;2022-08-02T15:10:26;7.93;;;1.60;;
22270;SDS011;11304;53.520;10.104;2022-08-02T15:12:52;4.13;;;1.45;;